Terminal Aerodrome Forecast
Issued by NWS

Home | Current Version | Previous Version | Text Only | Print | Product List | Glossary On
Versions: 1 2 3 4 5 6 7 8 9 10 11 12 13 14 15 16 17 18 19 20 21 22 23 24 25 26 27 28 29 30 31 32 33 34
858
FTUS44 KBMX 222040 AAE
TAFMGM
TAF AMD
KMGM 222040Z 2221/2318 27020G35KT P6SM FEW015 SCT020 OVC035
     FM230300 26015G20KT P6SM VCSH OVC015
     FM230900 32015G25KT P6SM OVC015=

USA.gov is the U.S. government's official web portal to all federal, state and local government web resources and services.